Time;durP1;ratioP1;P1;durP2;ratioP2;P2;SDS_P1;SDS_P2;PMS_P1;PMS_P2;Temp;Humidity;BMP_temperature;BMP_pressure;BME280_temperature;BME280_humidity;BME280_pressure;Samples;Min_cycle;Max_cycle;Signal;HPM_P1;HPM_P2
2023/06/08 00:00:50;;;;;;;8.50;4.55;;;19.50;84.10;;;;;;4199751;28;20140;-58
2023/06/08 00:02:53;;;;;;;6.20;3.90;;;19.50;84.30;;;;;;4200844;28;20068;-58
2023/06/08 00:04:57;;;;;;;7.40;3.92;;;19.50;84.50;;;;;;4200962;28;20051;-56
2023/06/08 00:06:59;;;;;;;8.02;4.00;;;19.50;84.50;;;;;;4200331;28;20443;-58
2023/06/08 00:09:02;;;;;;;9.45;4.60;;;19.40;84.60;;;;;;4200728;28;20384;-58
2023/06/08 00:11:04;;;;;;;8.18;4.28;;;19.40;85.00;;;;;;4199484;28;20474;-55
2023/06/08 00:13:06;;;;;;;11.70;5.30;;;19.30;85.10;;;;;;4200342;28;20075;-54
2023/06/08 00:15:13;;;;;;;7.43;4.60;;;19.30;85.40;;;;;;4200429;28;20045;-55
2023/06/08 00:17:15;;;;;;;7.32;4.50;;;19.20;85.60;;;;;;4199977;28;20047;-55
2023/06/08 00:19:18;;;;;;;6.78;4.05;;;19.30;85.60;;;;;;4198824;28;20044;-57
2023/06/08 00:21:22;;;;;;;8.43;4.28;;;19.20;85.80;;;;;;4199909;28;20049;-56
2023/06/08 00:23:25;;;;;;;10.85;4.32;;;19.20;85.80;;;;;;4201394;28;20044;-58
2023/06/08 00:25:27;;;;;;;8.50;4.50;;;19.20;85.90;;;;;;4199807;28;20093;-59
2023/06/08 00:27:29;;;;;;;9.88;4.85;;;19.20;86.10;;;;;;4214053;28;20381;-56
2023/06/08 00:29:32;;;;;;;9.30;3.88;;;19.20;86.10;;;;;;4216227;28;20040;-56
2023/06/08 00:31:34;;;;;;;7.20;4.30;;;19.20;86.20;;;;;;4198413;28;20203;-57
2023/06/08 00:33:36;;;;;;;6.82;4.35;;;19.20;86.40;;;;;;4216456;28;20085;-58
2023/06/08 00:35:38;;;;;;;9.02;4.30;;;19.10;86.60;;;;;;4216123;28;20048;-57
2023/06/08 00:37:42;;;;;;;7.40;4.35;;;19.10;86.70;;;;;;4216199;28;20391;-57
2023/06/08 00:39:44;;;;;;;8.98;4.43;;;19.10;87.00;;;;;;4198469;28;20044;-55
2023/06/08 00:41:47;;;;;;;6.60;4.13;;;19.10;87.10;;;;;;4199314;28;20048;-56
2023/06/08 00:43:49;;;;;;;9.15;4.63;;;19.00;87.20;;;;;;4199485;28;20063;-54
2023/06/08 00:45:51;;;;;;;7.10;4.43;;;19.00;87.30;;;;;;4199531;28;20052;-57
2023/06/08 00:47:54;;;;;;;9.80;4.68;;;19.00;87.70;;;;;;4198162;28;20052;-56
2023/06/08 00:49:57;;;;;;;12.18;4.65;;;19.00;87.80;;;;;;4198118;28;20150;-57
2023/06/08 00:52:01;;;;;;;5.63;4.38;;;19.00;87.80;;;;;;4199381;28;20132;-56
2023/06/08 00:54:05;;;;;;;9.70;4.80;;;18.90;88.00;;;;;;4199443;28;20059;-56
2023/06/08 00:56:07;;;;;;;11.75;5.25;;;18.90;88.20;;;;;;4197896;28;20449;-56
2023/06/08 00:58:13;;;;;;;7.43;4.78;;;19.00;88.20;;;;;;4199218;28;20401;-58
2023/06/08 01:00:15;;;;;;;8.82;5.38;;;18.90;88.40;;;;;;4197923;28;20115;-57
2023/06/08 01:02:18;;;;;;;6.93;4.57;;;18.90;88.70;;;;;;4199350;28;20099;-54
2023/06/08 01:04:20;;;;;;;8.43;4.90;;;18.90;88.60;;;;;;4199142;28;20119;-55
2023/06/08 01:06:22;;;;;;;8.73;5.05;;;18.90;88.90;;;;;;4198905;28;20050;-58
2023/06/08 01:08:37;;;;;;;8.45;4.63;;;18.90;88.90;;;;;;4199296;28;20053;-56
2023/06/08 01:10:48;;;;;;;6.90;5.00;;;18.80;89.40;;;;;;4198318;28;20045;-55
2023/06/08 01:12:57;;;;;;;9.32;4.60;;;18.80;89.40;;;;;;4199098;28;20049;-57
2023/06/08 01:15:05;;;;;;;10.85;5.32;;;18.80;89.60;;;;;;4199262;28;20052;-57
2023/06/08 01:17:09;;;;;;;6.90;5.10;;;18.80;89.70;;;;;;4199168;28;20044;-57
2023/06/08 01:19:18;;;;;;;7.97;4.97;;;18.80;89.70;;;;;;4198858;28;20479;-58
2023/06/08 01:21:40;;;;;;;7.28;5.15;;;18.80;89.80;;;;;;4198060;28;20044;-61
2023/06/08 01:24:12;;;;;;;6.80;4.80;;;18.70;90.00;;;;;;4199280;28;20045;-57
2023/06/08 01:26:15;;;;;;;6.68;5.00;;;18.70;90.10;;;;;;4201618;28;20117;-59
2023/06/08 01:28:18;;;;;;;8.57;5.38;;;18.70;90.10;;;;;;4215784;28;20044;-57
2023/06/08 01:30:20;;;;;;;9.55;5.03;;;18.80;90.20;;;;;;4214599;28;20098;-61
2023/06/08 01:32:23;;;;;;;11.48;4.95;;;18.80;90.20;;;;;;4215294;28;20054;-57
2023/06/08 01:34:26;;;;;;;7.28;4.75;;;18.70;90.40;;;;;;4215249;28;20048;-58
2023/06/08 01:36:37;;;;;;;7.18;4.45;;;18.70;90.20;;;;;;4215607;28;20118;-57
2023/06/08 01:38:48;;;;;;;7.35;5.45;;;18.70;90.30;;;;;;4206917;28;20037;-57
2023/06/08 01:40:56;;;;;;;13.85;5.35;;;18.70;90.40;;;;;;4197781;28;20489;-57
2023/06/08 01:43:00;;;;;;;14.25;5.32;;;18.70;90.70;;;;;;4198557;28;20049;-57
2023/06/08 01:45:08;;;;;;;8.30;5.00;;;18.60;90.70;;;;;;4198562;28;20464;-57
2023/06/08 01:47:14;;;;;;;9.00;5.57;;;18.60;90.60;;;;;;4199004;28;20123;-57
2023/06/08 01:49:17;;;;;;;8.80;4.93;;;18.70;90.60;;;;;;4199727;28;20044;-55
2023/06/08 01:51:20;;;;;;;10.38;5.63;;;18.60;90.70;;;;;;4197773;28;20383;-57
2023/06/08 01:53:22;;;;;;;10.13;5.57;;;18.60;90.70;;;;;;4198858;28;20123;-57
2023/06/08 01:55:25;;;;;;;8.18;5.55;;;18.70;90.70;;;;;;4198756;28;20123;-57
2023/06/08 01:57:29;;;;;;;9.23;5.40;;;18.70;90.70;;;;;;4198635;28;20040;-57
2023/06/08 01:59:31;;;;;;;9.27;5.05;;;18.70;90.80;;;;;;4198381;28;20041;-58
2023/06/08 02:01:36;;;;;;;8.93;5.68;;;18.60;90.80;;;;;;4197769;28;20041;-58
2023/06/08 02:03:38;;;;;;;9.63;5.63;;;18.60;90.90;;;;;;4198587;28;20493;-57
2023/06/08 02:05:40;;;;;;;11.82;6.13;;;18.60;90.90;;;;;;4198937;28;20135;-57
2023/06/08 02:07:43;;;;;;;8.90;5.60;;;18.60;91.10;;;;;;4199731;28;20131;-61
2023/06/08 02:09:45;;;;;;;10.43;5.90;;;18.60;91.20;;;;;;4198505;28;20377;-59
2023/06/08 02:11:47;;;;;;;8.05;6.05;;;18.60;91.30;;;;;;4198885;28;20417;-55
2023/06/08 02:13:50;;;;;;;10.13;5.60;;;18.50;91.30;;;;;;4198533;28;20051;-57
2023/06/08 02:15:53;;;;;;;12.77;5.82;;;18.50;91.40;;;;;;4198226;28;20068;-57
2023/06/08 02:17:58;;;;;;;8.52;6.28;;;18.50;91.50;;;;;;4197781;28;20066;-55
2023/06/08 02:20:06;;;;;;;9.13;6.25;;;18.50;91.50;;;;;;4197833;28;20052;-58
2023/06/08 02:22:09;;;;;;;8.63;6.00;;;18.50;91.60;;;;;;4198497;28;20048;-58
2023/06/08 02:24:11;;;;;;;9.82;6.10;;;18.40;91.50;;;;;;4199020;28;20448;-57
2023/06/08 02:26:13;;;;;;;9.57;6.28;;;18.40;91.60;;;;;;4201258;28;20060;-59
2023/06/08 02:28:16;;;;;;;10.40;6.53;;;18.40;91.70;;;;;;4214939;28;20040;-59
2023/06/08 02:30:19;;;;;;;11.63;6.47;;;18.40;91.70;;;;;;4214053;28;20072;-57
2023/06/08 02:32:22;;;;;;;11.77;6.63;;;18.40;91.70;;;;;;4214529;28;20043;-55
2023/06/08 02:34:24;;;;;;;10.40;5.93;;;18.30;91.70;;;;;;4214470;28;20092;-55
2023/06/08 02:36:31;;;;;;;10.57;5.72;;;18.30;91.80;;;;;;4214660;28;20055;-55
2023/06/08 02:38:33;;;;;;;13.82;6.25;;;18.30;91.90;;;;;;4207143;28;20102;-55
2023/06/08 02:40:38;;;;;;;;;;;18.30;91.80;;;;;;4197045;28;20040;-58
2023/06/08 02:42:40;;;;;;;11.18;6.05;;;18.20;91.80;;;;;;4197834;28;19990;-54
2023/06/08 02:44:43;;;;;;;13.27;6.38;;;18.30;91.80;;;;;;4196636;28;20127;-55
2023/06/08 02:46:47;;;;;;;9.13;6.38;;;18.40;91.70;;;;;;4197583;28;20067;-57
2023/06/08 02:48:50;;;;;;;17.27;5.60;;;18.30;91.60;;;;;;4197794;28;20083;-57
2023/06/08 02:50:52;;;;;;;9.20;5.60;;;18.30;91.70;;;;;;4196833;28;20044;-55
2023/06/08 02:52:54;;;;;;;13.65;6.40;;;18.40;91.60;;;;;;4197884;28;20048;-57
2023/06/08 02:54:57;;;;;;;10.52;6.43;;;18.30;91.60;;;;;;4197887;28;20051;-58
2023/06/08 02:56:59;;;;;;;14.20;6.20;;;18.30;91.60;;;;;;4197666;28;20442;-57
2023/06/08 02:59:02;;;;;;;10.63;5.78;;;18.20;91.60;;;;;;4197268;28;20131;-56
2023/06/08 03:01:14;;;;;;;12.55;6.05;;;18.30;91.70;;;;;;4196058;28;20056;-57
2023/06/08 03:03:24;;;;;;;;;;;18.30;91.60;;;;;;4198066;28;20071;-56
2023/06/08 03:05:28;;;;;;;9.88;5.60;;;18.20;91.80;;;;;;4197438;28;19989;-54
2023/06/08 03:07:30;;;;;;;12.43;5.88;;;18.20;91.70;;;;;;4197441;28;20072;-55
2023/06/08 03:09:34;;;;;;;8.40;5.50;;;18.20;91.80;;;;;;4197418;28;20055;-55
2023/06/08 03:11:36;;;;;;;7.63;5.50;;;18.30;91.80;;;;;;4196165;28;20050;-57
2023/06/08 03:13:39;;;;;;;12.55;6.30;;;18.30;91.80;;;;;;4197257;28;20048;-58
2023/06/08 03:15:43;;;;;;;13.27;5.82;;;18.30;91.70;;;;;;4196751;28;20095;-57
2023/06/08 03:17:45;;;;;;;11.27;6.60;;;18.30;92.00;;;;;;4197211;28;20048;-58
2023/06/08 03:19:48;;;;;;;11.95;6.32;;;18.20;91.80;;;;;;4197246;28;20418;-55
2023/06/08 03:21:50;;;;;;;7.60;5.45;;;18.20;91.80;;;;;;4195888;28;20128;-58
2023/06/08 03:23:53;;;;;;;12.88;6.18;;;18.20;91.80;;;;;;4195967;28;20123;-54
2023/06/08 03:25:56;;;;;;;8.77;5.72;;;18.20;91.80;;;;;;4197371;28;20049;-55
2023/06/08 03:27:58;;;;;;;13.27;6.78;;;18.20;91.70;;;;;;4197215;28;20041;-56
2023/06/08 03:30:00;;;;;;;13.93;5.95;;;18.20;91.70;;;;;;4196050;28;20215;-62
2023/06/08 03:32:03;;;;;;;9.93;5.82;;;18.20;91.80;;;;;;4196802;28;20044;-57
2023/06/08 03:34:06;;;;;;;11.43;5.85;;;18.20;91.80;;;;;;4203749;28;20093;-58
2023/06/08 03:36:09;;;;;;;10.57;5.47;;;18.20;91.80;;;;;;4214412;28;20131;-59
2023/06/08 03:38:11;;;;;;;8.85;5.60;;;18.20;91.90;;;;;;4209784;28;20042;-57
2023/06/08 03:40:14;;;;;;;11.32;5.45;;;18.10;91.80;;;;;;4196494;28;20048;-57
2023/06/08 03:42:16;;;;;;;12.10;6.15;;;18.10;91.80;;;;;;4195372;28;20428;-58
2023/06/08 03:44:18;;;;;;;11.55;6.15;;;18.10;91.80;;;;;;4196610;28;20238;-58
2023/06/08 03:46:20;;;;;;;8.73;5.65;;;18.10;91.70;;;;;;4197232;28;20048;-57
2023/06/08 03:48:22;;;;;;;7.60;5.88;;;18.00;91.90;;;;;;4197156;28;20040;-58
2023/06/08 03:50:24;;;;;;;8.75;5.43;;;18.00;92.00;;;;;;4196138;28;20124;-58
2023/06/08 03:52:28;;;;;;;10.07;5.53;;;18.00;92.20;;;;;;4197025;28;20069;-55
2023/06/08 03:54:30;;;;;;;10.32;5.85;;;18.00;91.90;;;;;;4197152;28;20168;-58
2023/06/08 03:56:32;;;;;;;12.70;6.20;;;17.90;92.10;;;;;;4196523;28;20057;-58
2023/06/08 03:58:34;;;;;;;12.02;5.95;;;17.90;92.10;;;;;;4196560;28;20051;-57
2023/06/08 04:00:37;;;;;;;13.90;6.68;;;17.80;92.20;;;;;;4196140;28;20102;-57
2023/06/08 04:02:39;;;;;;;13.43;6.43;;;17.90;92.20;;;;;;4196641;28;20044;-57
2023/06/08 04:04:44;;;;;;;12.43;6.45;;;17.80;92.40;;;;;;4196946;28;20518;-57
2023/06/08 04:06:46;;;;;;;12.15;6.50;;;17.80;92.40;;;;;;4196787;28;20110;-58
2023/06/08 04:08:50;;;;;;;12.68;6.45;;;17.80;92.40;;;;;;4196687;28;20067;-57
2023/06/08 04:10:52;;;;;;;11.07;7.00;;;17.70;92.60;;;;;;4194426;28;20044;-57
2023/06/08 04:12:55;;;;;;;14.23;7.20;;;17.70;92.90;;;;;;4196450;28;20047;-57
2023/06/08 04:14:58;;;;;;;18.85;7.13;;;17.70;92.70;;;;;;4196867;28;20049;-57
2023/06/08 04:17:00;;;;;;;12.07;7.25;;;17.70;92.80;;;;;;4197159;28;20130;-58
2023/06/08 04:19:02;;;;;;;13.82;8.05;;;17.70;93.00;;;;;;4197456;28;20102;-58
2023/06/08 04:21:05;;;;;;;19.90;8.18;;;17.70;93.20;;;;;;4196172;28;20052;-56
2023/06/08 04:23:11;;;;;;;9.82;7.43;;;17.70;93.20;;;;;;4196727;28;20102;-57
2023/06/08 04:25:15;;;;;;;20.75;8.98;;;17.70;93.20;;;;;;4196645;28;20049;-58
2023/06/08 04:27:17;;;;;;;16.23;8.83;;;17.70;93.30;;;;;;4207470;28;20072;-57
2023/06/08 04:29:19;;;;;;;18.27;9.20;;;17.70;93.50;;;;;;4213109;28;20433;-55
2023/06/08 04:31:21;;;;;;;19.02;9.52;;;17.70;93.70;;;;;;4212136;28;20116;-58
2023/06/08 04:33:24;;;;;;;15.70;9.40;;;17.60;93.80;;;;;;4213247;28;20410;-57
2023/06/08 04:35:26;;;;;;;18.75;9.15;;;17.70;93.80;;;;;;4216812;28;20071;-57
2023/06/08 04:37:28;;;;;;;14.73;9.32;;;17.70;93.70;;;;;;4198253;28;20473;-57
2023/06/08 04:39:31;;;;;;;14.88;9.05;;;17.70;94.00;;;;;;4200389;28;20061;-57
2023/06/08 04:41:35;;;;;;;14.75;9.88;;;17.70;94.30;;;;;;4197271;28;20090;-58
2023/06/08 04:43:37;;;;;;;17.85;10.75;;;17.70;94.30;;;;;;4199407;28;20071;-59
2023/06/08 04:45:42;;;;;;;23.48;11.10;;;17.80;94.30;;;;;;4198320;28;20052;-57
2023/06/08 04:47:44;;;;;;;16.08;11.60;;;17.80;94.20;;;;;;4199251;28;20131;-57
2023/06/08 04:49:47;;;;;;;17.63;10.57;;;17.70;94.50;;;;;;4198038;28;20052;-57
2023/06/08 04:51:49;;;;;;;21.30;11.63;;;17.70;94.70;;;;;;4198478;28;20120;-56
2023/06/08 04:53:54;;;;;;;20.10;11.77;;;17.70;94.80;;;;;;4199683;28;20041;-55
2023/06/08 04:55:57;;;;;;;20.70;12.23;;;17.60;95.10;;;;;;4199765;28;20056;-55
2023/06/08 04:58:01;;;;;;;20.45;12.43;;;17.60;95.40;;;;;;4199396;28;20060;-59
2023/06/08 05:00:08;;;;;;;19.77;11.75;;;17.60;95.40;;;;;;4198212;28;20069;-58
2023/06/08 05:02:11;;;;;;;21.20;12.38;;;17.60;95.60;;;;;;4198616;28;20056;-57
2023/06/08 05:04:13;;;;;;;18.58;11.25;;;17.60;95.80;;;;;;4199217;28;20044;-58
2023/06/08 05:06:16;;;;;;;25.00;12.73;;;17.60;95.90;;;;;;4199176;28;20056;-57
2023/06/08 05:08:18;;;;;;;26.83;12.95;;;17.60;95.90;;;;;;4197893;28;20048;-58
2023/06/08 05:10:20;;;;;;;29.25;12.90;;;17.60;96.20;;;;;;4198468;28;20078;-57
2023/06/08 05:12:22;;;;;;;25.63;14.32;;;17.60;96.30;;;;;;4198335;28;20056;-57
2023/06/08 05:14:26;;;;;;;23.98;13.05;;;17.60;96.40;;;;;;4199402;28;20045;-57
2023/06/08 05:16:28;;;;;;;24.00;15.07;;;17.60;96.50;;;;;;4199087;28;20045;-57
2023/06/08 05:18:31;;;;;;;26.95;14.43;;;17.40;96.90;;;;;;4199185;28;20517;-58
2023/06/08 05:20:33;;;;;;;27.40;15.48;;;17.40;97.20;;;;;;4198802;28;20195;-59
2023/06/08 05:22:35;;;;;;;29.67;14.68;;;17.50;97.10;;;;;;4199730;28;20119;-57
2023/06/08 05:24:37;;;;;;;29.15;15.27;;;17.50;97.00;;;;;;4199725;28;20048;-57
2023/06/08 05:26:39;;;;;;;28.65;13.68;;;17.50;97.20;;;;;;4206285;28;20046;-57
2023/06/08 05:28:41;;;;;;;25.65;13.85;;;17.50;97.20;;;;;;4199874;28;20138;-59
2023/06/08 05:30:46;;;;;;;30.45;14.57;;;17.60;97.20;;;;;;4216581;28;20067;-60
2023/06/08 05:32:48;;;;;;;31.17;14.75;;;17.60;97.30;;;;;;4216768;28;20090;-55
2023/06/08 05:34:50;;;;;;;42.47;15.65;;;17.60;97.10;;;;;;4215655;28;20048;-57
2023/06/08 05:36:54;;;;;;;27.02;13.25;;;17.70;97.30;;;;;;4216646;28;20046;-57
2023/06/08 05:38:56;;;;;;;36.22;14.65;;;17.70;97.20;;;;;;4206570;28;20135;-55
2023/06/08 05:40:58;;;;;;;31.50;15.65;;;17.80;97.20;;;;;;4198377;28;20048;-55
2023/06/08 05:43:00;;;;;;;24.73;14.25;;;17.80;97.10;;;;;;4198745;28;20048;-58
2023/06/08 05:45:02;;;;;;;22.13;15.02;;;17.70;97.30;;;;;;4198967;28;20095;-58
2023/06/08 05:47:07;;;;;;;26.60;15.57;;;17.70;97.40;;;;;;4198937;28;20098;-55
2023/06/08 05:49:11;;;;;;;28.73;15.65;;;17.60;97.60;;;;;;4198667;28;20059;-57
2023/06/08 05:51:13;;;;;;;49.40;16.23;;;17.60;97.70;;;;;;4197523;28;20051;-56
2023/06/08 05:53:15;;;;;;;57.60;16.23;;;17.70;97.60;;;;;;4198408;28;20044;-56
2023/06/08 05:55:17;;;;;;;49.90;15.60;;;17.90;97.40;;;;;;4198197;28;20496;-56
2023/06/08 05:57:19;;;;;;;25.27;14.35;;;18.00;97.20;;;;;;4198600;28;20379;-56
2023/06/08 05:59:21;;;;;;;39.00;15.25;;;18.10;97.10;;;;;;4198269;28;20524;-55
2023/06/08 06:01:24;;;;;;;53.33;15.20;;;18.10;97.10;;;;;;4197204;28;20053;-55
2023/06/08 06:03:27;;;;;;;52.72;15.65;;;18.20;97.10;;;;;;4198449;28;20052;-56
2023/06/08 06:05:30;;;;;;;32.78;15.30;;;18.20;97.00;;;;;;4198260;28;20483;-58
2023/06/08 06:07:32;;;;;;;35.92;14.35;;;18.30;96.90;;;;;;4196953;28;20040;-55
2023/06/08 06:09:34;;;;;;;40.55;14.98;;;18.30;96.80;;;;;;4198252;28;20072;-55
2023/06/08 06:11:37;;;;;;;30.73;14.50;;;18.40;96.80;;;;;;4195889;28;20269;-59
2023/06/08 06:13:39;;;;;;;32.85;15.60;;;18.20;97.00;;;;;;4199039;28;20122;-55
2023/06/08 06:15:41;;;;;;;34.65;15.18;;;18.30;97.10;;;;;;4199674;28;20049;-61
2023/06/08 06:17:43;;;;;;;28.20;12.82;;;18.40;96.80;;;;;;4199160;28;20059;-57
2023/06/08 06:19:47;;;;;;;42.97;16.00;;;18.50;96.70;;;;;;4198413;28;20057;-58
2023/06/08 06:21:49;;;;;;;30.23;16.67;;;18.60;96.70;;;;;;4197389;28;20051;-57
2023/06/08 06:23:51;;;;;;;37.10;16.17;;;18.50;96.60;;;;;;4198128;28;20064;-58
2023/06/08 06:25:53;;;;;;;31.60;14.73;;;18.50;96.70;;;;;;4196660;28;20504;-57
2023/06/08 06:27:55;;;;;;;30.83;16.45;;;18.50;96.70;;;;;;4214432;28;20048;-57
2023/06/08 06:29:57;;;;;;;30.17;16.73;;;18.40;96.80;;;;;;4214595;28;20071;-57
2023/06/08 06:32:00;;;;;;;24.27;15.48;;;18.40;97.00;;;;;;4213604;28;20055;-58
2023/06/08 06:34:02;;;;;;;25.20;15.50;;;18.40;97.10;;;;;;4214615;28;20048;-57
2023/06/08 06:36:06;;;;;;;29.45;15.68;;;18.50;97.00;;;;;;4214697;28;20044;-57
2023/06/08 06:38:08;;;;;;;35.03;16.00;;;18.50;97.00;;;;;;4196104;28;20621;-57
2023/06/08 06:40:11;;;;;;;28.83;15.90;;;18.60;96.80;;;;;;4197786;28;20052;-58
2023/06/08 06:42:15;;;;;;;27.13;15.82;;;18.60;96.90;;;;;;4196672;28;20526;-56
2023/06/08 06:44:17;;;;;;;33.20;15.57;;;18.70;96.90;;;;;;4197568;28;20465;-56
2023/06/08 06:46:21;;;;;;;40.78;13.35;;;18.70;96.70;;;;;;4197692;28;20144;-54
2023/06/08 06:48:24;;;;;;;45.63;16.63;;;18.90;96.50;;;;;;4197554;28;20414;-57
2023/06/08 06:50:27;;;;;;;33.33;15.68;;;19.10;96.40;;;;;;4197480;28;20057;-58
2023/06/08 06:52:31;;;;;;;29.27;16.38;;;19.10;96.30;;;;;;4196243;28;20048;-57
2023/06/08 06:54:33;;;;;;;32.78;15.60;;;19.10;96.20;;;;;;4197342;28;20044;-57
2023/06/08 06:56:35;;;;;;;32.15;16.85;;;19.30;96.00;;;;;;4196741;28;20045;-57
2023/06/08 06:58:38;;;;;;;36.40;16.02;;;19.30;96.00;;;;;;4197555;28;20056;-56
2023/06/08 07:00:40;;;;;;;32.47;15.82;;;19.40;96.00;;;;;;4197010;28;20486;-59
2023/06/08 07:02:42;;;;;;;26.50;16.13;;;19.60;95.80;;;;;;4197296;28;20048;-57
2023/06/08 07:04:45;;;;;;;26.73;16.13;;;19.70;95.50;;;;;;4197542;28;20135;-56
2023/06/08 07:06:50;;;;;;;38.63;16.73;;;19.70;95.60;;;;;;4198942;28;20060;-63
2023/06/08 07:08:55;;;;;;;31.45;14.93;;;19.80;95.40;;;;;;4197828;28;20049;-58
2023/06/08 07:11:01;;;;;;;31.95;15.90;;;20.00;95.30;;;;;;4178569;28;20103;-57
2023/06/08 07:13:03;;;;;;;36.45;15.82;;;20.30;94.90;;;;;;4179069;28;20041;-56
2023/06/08 07:15:07;;;;;;;30.95;15.38;;;20.50;94.40;;;;;;4197373;28;20055;-57
2023/06/08 07:17:11;;;;;;;29.42;16.17;;;20.60;94.20;;;;;;4197127;28;20079;-58
2023/06/08 07:19:13;;;;;;;28.92;16.13;;;20.50;94.20;;;;;;4197336;28;20044;-57
2023/06/08 07:21:19;;;;;;;32.22;15.43;;;20.60;94.30;;;;;;4196470;28;20464;-58
2023/06/08 07:23:22;;;;;;;25.75;15.50;;;20.80;94.10;;;;;;4197533;28;20041;-57
2023/06/08 07:25:46;;;;;;;26.65;16.52;;;21.00;93.80;;;;;;4197061;28;20477;-58
2023/06/08 07:28:09;;;;;;;26.05;14.43;;;21.00;93.50;;;;;;4197209;28;20056;-57
2023/06/08 07:30:12;;;;;;;28.00;16.02;;;21.10;93.60;;;;;;4179350;28;20499;-57
2023/06/08 07:32:15;;;;;;;26.98;16.20;;;21.10;93.50;;;;;;4196235;28;20044;-57
2023/06/08 07:34:17;;;;;;;28.83;15.70;;;21.20;93.40;;;;;;4187410;28;20051;-59
2023/06/08 07:36:20;;;;;;;26.55;15.15;;;21.30;93.30;;;;;;4213343;28;20508;-58
2023/06/08 07:38:22;;;;;;;25.58;15.45;;;21.40;93.10;;;;;;4207610;28;20466;-57
2023/06/08 07:40:25;;;;;;;25.55;15.45;;;21.40;93.00;;;;;;4197114;28;20045;-58
2023/06/08 07:42:28;;;;;;;25.77;17.00;;;21.30;93.20;;;;;;4195793;28;20052;-58
2023/06/08 07:44:30;;;;;;;25.33;15.80;;;21.10;93.30;;;;;;4195604;28;20048;-60
2023/06/08 07:46:33;;;;;;;32.72;16.45;;;21.10;93.40;;;;;;4196730;28;20125;-57
2023/06/08 07:48:35;;;;;;;29.73;15.52;;;21.10;93.50;;;;;;4197066;28;20478;-57
2023/06/08 07:50:37;;;;;;;23.92;14.55;;;21.20;93.40;;;;;;4196598;28;20446;-58
2023/06/08 07:52:40;;;;;;;30.33;15.13;;;21.50;93.20;;;;;;4195761;28;20123;-57
2023/06/08 07:54:46;;;;;;;27.75;15.77;;;21.70;93.10;;;;;;4195915;28;20098;-57
2023/06/08 07:56:49;;;;;;;27.50;16.52;;;21.80;92.70;;;;;;4196844;28;20131;-57
2023/06/08 07:58:53;;;;;;;33.75;15.85;;;21.80;92.80;;;;;;4196542;28;20075;-58
2023/06/08 08:00:55;;;;;;;24.38;15.45;;;21.80;92.60;;;;;;4196004;28;20044;-55
2023/06/08 08:02:57;;;;;;;24.95;14.70;;;21.90;92.60;;;;;;4196899;28;20383;-57
2023/06/08 08:05:00;;;;;;;23.13;15.05;;;21.60;92.70;;;;;;4196442;28;20068;-54
2023/06/08 08:07:02;;;;;;;34.13;15.30;;;21.50;93.40;;;;;;4196977;28;20431;-54
2023/06/08 08:09:04;;;;;;;21.33;15.57;;;21.60;93.20;;;;;;4198725;28;20068;-57
2023/06/08 08:11:09;;;;;;;25.95;16.08;;;21.80;92.90;;;;;;4199738;28;20048;-58
2023/06/08 08:13:12;;;;;;;25.23;15.27;;;21.80;92.80;;;;;;4200672;28;20079;-59
2023/06/08 08:15:15;;;;;;;25.73;15.25;;;21.90;92.70;;;;;;4200679;28;20048;-59
2023/06/08 08:17:17;;;;;;;25.48;16.05;;;21.80;93.00;;;;;;4200081;28;20044;-57
2023/06/08 08:19:20;;;;;;;26.52;15.02;;;21.80;92.70;;;;;;4200007;28;20115;-57
2023/06/08 08:21:22;;;;;;;25.17;14.05;;;21.90;92.80;;;;;;4198808;28;20536;-56
2023/06/08 08:23:24;;;;;;;26.70;13.27;;;22.00;92.80;;;;;;4199975;28;20059;-58
2023/06/08 08:25:26;;;;;;;26.40;14.00;;;22.30;92.70;;;;;;4198740;28;20055;-55
2023/06/08 08:27:28;;;;;;;30.23;15.13;;;22.40;92.30;;;;;;4212798;28;20056;-55
2023/06/08 08:29:31;;;;;;;28.58;14.10;;;22.30;92.40;;;;;;4216481;28;20048;-57
2023/06/08 08:31:35;;;;;;;22.48;12.75;;;22.40;92.40;;;;;;4215338;28;20052;-58
2023/06/08 08:33:37;;;;;;;26.02;13.93;;;22.60;92.10;;;;;;4216500;28;20422;-57
2023/06/08 08:35:39;;;;;;;26.33;14.90;;;22.50;91.90;;;;;;4216326;28;20433;-57
2023/06/08 08:37:42;;;;;;;30.73;13.68;;;22.40;92.20;;;;;;4198197;28;20048;-58
2023/06/08 08:39:45;;;;;;;29.08;14.80;;;22.40;92.30;;;;;;4200051;28;20115;-56
2023/06/08 08:41:54;;;;;;;34.42;15.07;;;22.50;92.10;;;;;;4199328;28;20056;-57
2023/06/08 08:44:01;;;;;;;46.70;14.70;;;22.60;92.10;;;;;;4199964;28;20056;-61
2023/06/08 08:46:06;;;;;;;44.47;13.27;;;22.60;92.10;;;;;;4200354;28;20146;-58
2023/06/08 08:48:13;;;;;;;27.17;12.57;;;22.80;91.90;;;;;;4199704;28;20048;-56
2023/06/08 08:50:17;;;;;;;20.83;12.63;;;22.60;91.90;;;;;;4199233;28;20496;-54
2023/06/08 08:52:23;;;;;;;27.67;14.07;;;22.60;92.00;;;;;;4198413;28;20040;-55
2023/06/08 08:54:31;;;;;;;27.42;13.73;;;22.60;91.90;;;;;;4199277;28;20048;-55
2023/06/08 08:56:36;;;;;;;35.80;12.32;;;22.50;92.10;;;;;;4199676;28;20064;-56
2023/06/08 08:58:38;;;;;;;41.15;11.88;;;22.60;92.10;;;;;;4199306;28;20052;-57
2023/06/08 09:00:40;;;;;;;35.80;12.25;;;22.80;91.80;;;;;;4199500;28;20048;-56
2023/06/08 09:02:42;;;;;;;54.75;12.77;;;22.80;91.70;;;;;;4198379;28;20045;-57
2023/06/08 09:04:47;;;;;;;32.08;13.20;;;23.00;91.50;;;;;;4199018;28;20510;-56
2023/06/08 09:06:50;;;;;;;26.67;12.50;;;23.20;91.40;;;;;;4199193;28;20055;-54
2023/06/08 09:08:53;;;;;;;22.98;12.02;;;23.10;91.10;;;;;;4199533;28;20113;-58
2023/06/08 09:11:04;;;;;;;19.92;11.48;;;23.10;91.20;;;;;;4199123;28;20052;-56
2023/06/08 09:13:06;;;;;;;16.08;10.48;;;23.10;91.20;;;;;;4200334;28;20155;-56
2023/06/08 09:15:11;;;;;;;22.83;10.60;;;23.10;91.30;;;;;;4212225;28;20408;-58
2023/06/08 09:17:37;;;;;;;19.33;10.98;;;23.10;91.10;;;;;;4210957;28;20075;-57
2023/06/08 09:19:53;;;;;;;21.73;11.38;;;23.10;91.20;;;;;;4210715;28;20044;-56
2023/06/08 09:21:55;;;;;;;20.73;10.70;;;22.90;91.50;;;;;;4199904;28;20076;-56
2023/06/08 09:24:06;;;;;;;34.05;10.90;;;23.10;91.40;;;;;;4215318;28;20071;-56
2023/06/08 09:26:26;;;;;;;33.23;11.27;;;23.30;91.20;;;;;;4215013;28;20044;-57
2023/06/08 09:28:28;;;;;;;24.90;10.48;;;23.40;90.90;;;;;;4204112;28;20453;-55
2023/06/08 09:30:32;;;;;;;24.20;10.10;;;23.40;90.70;;;;;;4214521;28;20406;-54
2023/06/08 09:32:37;;;;;;;21.83;10.23;;;23.50;90.90;;;;;;4213731;28;20059;-54
2023/06/08 09:34:49;;;;;;;24.98;10.48;;;23.70;90.90;;;;;;4212430;28;20048;-57
2023/06/08 09:37:06;;;;;;;22.00;10.40;;;23.80;90.50;;;;;;4215018;28;20044;-57
2023/06/08 09:39:08;;;;;;;15.10;9.35;;;23.90;90.30;;;;;;4214279;28;20044;-57
2023/06/08 09:41:16;;;;;;;24.75;9.10;;;23.80;90.20;;;;;;4214544;28;20044;-57
2023/06/08 09:43:41;;;;;;;14.80;9.55;;;24.00;90.30;;;;;;4214499;28;20040;-57
2023/06/08 09:45:44;;;;;;;20.63;10.00;;;23.90;90.00;;;;;;4200001;28;20058;-56
2023/06/08 09:47:47;;;;;;;20.05;9.70;;;23.90;90.20;;;;;;4215621;28;20052;-54
2023/06/08 09:49:53;;;;;;;26.40;10.60;;;24.00;90.20;;;;;;4212345;28;20043;-57
2023/06/08 09:51:57;;;;;;;22.38;8.88;;;23.90;89.80;;;;;;4209978;28;20071;-56
2023/06/08 09:54:06;;;;;;;17.55;9.35;;;24.00;89.90;;;;;;4210681;28;20062;-57
2023/06/08 09:56:08;;;;;;;27.65;9.13;;;24.00;89.90;;;;;;4214491;28;20052;-53
2023/06/08 09:58:11;;;;;;;17.85;9.55;;;24.20;89.70;;;;;;4196666;28;20041;-53
2023/06/08 10:00:17;;;;;;;15.70;8.52;;;24.20;89.20;;;;;;4214615;28;20478;-54
2023/06/08 10:02:26;;;;;;;18.20;8.73;;;24.30;89.00;;;;;;4213021;28;20454;-54
2023/06/08 10:04:31;;;;;;;13.95;9.38;;;24.20;88.00;;;;;;4209003;28;20410;-54
2023/06/08 10:06:35;;;;;;;13.88;8.88;;;24.20;88.30;;;;;;4211322;28;20101;-54
2023/06/08 10:08:42;;;;;;;16.35;8.57;;;24.30;87.90;;;;;;4214531;28;20044;-53
2023/06/08 10:10:45;;;;;;;23.55;8.57;;;24.30;88.20;;;;;;4214733;28;20052;-56
2023/06/08 10:12:48;;;;;;;33.95;8.70;;;24.50;87.40;;;;;;4208979;28;20123;-57
2023/06/08 10:14:51;;;;;;;15.60;8.65;;;24.70;86.60;;;;;;4213290;28;20051;-57
2023/06/08 10:16:54;;;;;;;17.73;8.43;;;24.50;86.70;;;;;;4213615;28;20044;-56
2023/06/08 10:18:58;;;;;;;21.13;8.70;;;24.60;87.30;;;;;;4214003;28;20130;-57
2023/06/08 10:21:03;;;;;;;17.13;7.88;;;24.90;86.40;;;;;;4214290;28;20505;-57
2023/06/08 10:23:06;;;;;;;15.63;7.55;;;24.90;85.90;;;;;;4210717;28;20032;-52
2023/06/08 10:25:13;;;;;;;12.43;7.22;;;24.70;85.80;;;;;;4214158;28;20059;-52
2023/06/08 10:27:29;;;;;;;11.82;6.95;;;24.80;85.80;;;;;;4214161;28;20036;-54
2023/06/08 10:29:31;;;;;;;14.13;7.40;;;25.10;84.90;;;;;;4209235;28;20048;-56
2023/06/08 10:31:37;;;;;;;32.22;8.90;;;25.10;85.30;;;;;;4212222;28;20051;-54
2023/06/08 10:33:40;;;;;;;13.98;7.93;;;25.20;84.60;;;;;;4193601;28;20059;-53
2023/06/08 10:36:01;;;;;;;19.90;7.97;;;25.20;84.30;;;;;;4205354;28;20036;-53